Gällivare Airport

ESNG · 北博滕, 瑞典

METAR的历史 ESNG · Gällivare Airport

下面你可以看到过去几天的METARs。 选择年份以浏览从2007年开始的旧METAR。

2024年2月27日

时间 代码 天气 温度 能见度 天花板 METAR/SPECI
17:50
V
-5 °C 10 km+ - 130° 130° 4 kt METAR ESNG 271650Z 13004KT 050V210 9999 FEW025 M05/M07 Q1005
17:20
V
-5 °C 10 km+ - 060° 060° 4 kt METAR ESNG 271620Z 06004KT 9999 SCT026 M05/M07 Q1006
16:50
V
-4 °C 10 km+ - 090° 090° 4 kt METAR ESNG 271550Z 09004KT 070V140 CAVOK M04/M08 Q1006
16:20
V
-4 °C 10 km+ - 090° 090° 4 kt METAR ESNG 271520Z 09004KT 040V160 CAVOK M04/M08 Q1006
15:50
V
-3 °C 10 km+ - Var Var 2 kt METAR ESNG 271450Z VRB02KT CAVOK M03/M07 Q1006
15:20
V
-3 °C 10 km+ - 160° 160° 5 kt METAR ESNG 271420Z 16005KT 090V220 CAVOK M03/M07 Q1006
14:50
V
-2 °C 10 km+ - 180° 180° 5 kt METAR ESNG 271350Z 18005KT 090V240 CAVOK M02/M07 Q1006
14:20
V
-2 °C 10 km+ - 190° 190° 7 kt METAR ESNG 271320Z 19007KT CAVOK M02/M07 Q1007
13:50
V
-2 °C 10 km+ - 190° 190° 8 kt METAR ESNG 271250Z 19008KT CAVOK M02/M07 Q1007
13:20
V
-2 °C 10 km+ - 190° 190° 8 kt METAR ESNG 271220Z 19008KT CAVOK M02/M07 Q1007
12:50
V
-3 °C 10 km+ - 160° 160° 5 kt METAR ESNG 271150Z 16005KT 110V210 CAVOK M03/M06 Q1007
12:20
V
-4 °C 10 km+ - 100° 100° 6 kt METAR ESNG 271120Z 10006KT CAVOK M04/M08 Q1007
11:50
V
-4 °C 10 km+ - 090° 090° 7 kt METAR ESNG 271050Z 09007KT CAVOK M04/M07 Q1007
11:20
V
-8 °C 10 km+ - 120° 120° 8 kt METAR ESNG 271020Z 12008KT CAVOK M08/M10 Q1007
10:50
V
-10 °C 10 km+ - 100° 100° 2 kt METAR ESNG 270950Z 10002KT CAVOK M10/M12 Q1007
10:20
V
-12 °C 10 km+ - 360° 360° 0 kt METAR ESNG 270920Z 00000KT CAVOK M12/M14 Q1007
09:50
V
-13 °C 10 km+ - Var Var 2 kt METAR ESNG 270850Z VRB02KT CAVOK M13/M14 Q1007
09:20
V
-13 °C 10 km+ - 330° 330° 3 kt METAR ESNG 270820Z 33003KT CAVOK M13/M14 Q1007
08:50
V
-16 °C 10 km+ - Var Var 2 kt METAR ESNG 270750Z VRB02KT CAVOK M16/M17 Q1008
08:20
V
-15 °C 10 km+ - 340° 340° 6 kt METAR ESNG 270720Z 34006KT CAVOK M15/M16 Q1007
07:50
V
-14 °C 10 km+ - 320° 320° 6 kt METAR ESNG 270650Z 32006KT CAVOK M14/M16 Q1007
07:20
V
-15 °C 10 km+ - 320° 320° 7 kt METAR ESNG 270620Z 32007KT CAVOK M15/M17 Q1007
06:50
V
-14 °C 10 km+ - 310° 310° 8 kt METAR ESNG 270550Z 31008KT CAVOK M14/M16 Q1007
06:20
V
-15 °C 10 km+ - 300° 300° 6 kt METAR ESNG 270520Z 30006KT CAVOK M15/M16 Q1007
05:50
V
-14 °C 10 km+ - 320° 320° 6 kt METAR ESNG 270450Z 32006KT CAVOK M14/M15 Q1007
05:20
V
-14 °C 10 km+ - 320° 320° 5 kt METAR ESNG 270420Z 32005KT CAVOK M14/M16 Q1007
04:50
V
-14 °C 10 km+ - 290° 290° 4 kt METAR ESNG 270350Z 29004KT CAVOK M14/M16 Q1007
04:20
V
-14 °C 10 km+ - 310° 310° 5 kt METAR ESNG 270320Z AUTO 31005KT 9999 NCD M14/M15 Q1007
03:50
V
-14 °C 10 km+ - 310° 310° 6 kt METAR ESNG 270250Z AUTO 31006KT 9999 NCD M14/M15 Q1007
03:20
V
-12 °C 10 km+ - 310° 310° 8 kt METAR ESNG 270220Z AUTO 31008KT 9999 NCD M12/M13 Q1007
02:50
V
-11 °C 10 km+ - 310° 310° 5 kt METAR ESNG 270150Z AUTO 31005KT 9999 NCD M11/M13 Q1007
02:20
V
-11 °C 10 km+ - 300° 300° 6 kt METAR ESNG 270120Z AUTO 30006KT 9999 NCD M11/M12 Q1007
01:50
V
-12 °C 10 km+ - 310° 310° 6 kt METAR ESNG 270050Z AUTO 31006KT 9999 NCD M12/M13 Q1007
01:20
V
-11 °C 10 km+ - 320° 320° 4 kt METAR ESNG 270020Z AUTO 32004KT 9999 NCD M11/M12 Q1007
00:50
V
-12 °C 10 km+ - 310° 310° 6 kt METAR ESNG 262350Z AUTO 31006KT 9999 NCD M12/M14 Q1007
00:20
V
-10 °C 10 km+ - 300° 300° 4 kt METAR ESNG 262320Z AUTO 30004KT 210V330 9999 NCD M10/M11 Q1007

2024年2月26日

时间 代码 天气 温度 能见度 天花板 METAR/SPECI
23:50
V
-9 °C 10 km+ - 340° 340° 5 kt METAR ESNG 262250Z AUTO 34005KT 9999 NCD M09/M10 Q1007
23:20
V
-9 °C 10 km+ - 250° 250° 2 kt METAR ESNG 262220Z AUTO 25002KT 9999 NCD M09/M10 Q1006
22:50
V
-9 °C 10 km+ - 310° 310° 2 kt METAR ESNG 262150Z AUTO 31002KT 9999 NCD M09/M10 Q1006
22:20
V
-8 °C 10 km+ - Var Var 2 kt METAR ESNG 262120Z AUTO VRB02KT 9999 NCD M08/M09 Q1006
21:50
V
-8 °C 10 km+ - 320° 320° 4 kt METAR ESNG 262050Z 32004KT 290V020 CAVOK M08/M08 Q1005
21:20
V
-4 °C 10 km+ - 310° 310° 7 kt METAR ESNG 262020Z 31007KT CAVOK M04/M05 Q1005
20:50
V
-6 °C 10 km+ - 320° 320° 5 kt METAR ESNG 261950Z 32005KT CAVOK M06/M07 Q1005
20:20
V
-5 °C 10 km+ - 320° 320° 7 kt METAR ESNG 261920Z 32007KT CAVOK M05/M07 Q1005
19:50
V
-4 °C 10 km+ - 310° 310° 4 kt METAR ESNG 261850Z 31004KT CAVOK M04/M05 Q1005
19:20
V
-2 °C 10 km+ - 280° 280° 7 kt METAR ESNG 261820Z 28007KT CAVOK M02/M04 Q1004
18:50
V
-2 °C 10 km+ - 290° 290° 8 kt METAR ESNG 261750Z 29008KT CAVOK M02/M05 Q1004
18:20
V
-1 °C 10 km+ - 310° 310° 6 kt METAR ESNG 261720Z 31006KT CAVOK M01/M04 Q1004
17:50
V
-2 °C 10 km+ - 280° 280° 4 kt METAR ESNG 261650Z 28004KT CAVOK M02/M04 Q1003
17:20
V
0 °C 10 km+ - 310° 310° 5 kt METAR ESNG 261620Z 31005KT CAVOK M00/M04 Q1003
16:50
V
0 °C 10 km+ - Var Var 3 kt METAR ESNG 261550Z VRB03KT CAVOK 00/M03 Q1003
16:20
V
1 °C 10 km+ - 260° 260° 5 kt METAR ESNG 261520Z 26005KT CAVOK 01/M03 Q1002
15:50
V
1 °C 10 km+ - 240° 240° 7 kt METAR ESNG 261450Z 24007KT CAVOK 01/M03 Q1002
15:20
V
2 °C 10 km+ - 250° 250° 8 kt METAR ESNG 261420Z 25008KT CAVOK 02/M03 Q1002
14:50
V
1 °C 10 km+ - 230° 230° 6 kt METAR ESNG 261350Z 23006KT CAVOK 01/M03 Q1001
14:20
V
2 °C 10 km+ - 220° 220° 8 kt METAR ESNG 261320Z 22008KT CAVOK 02/M03 Q1001
13:50
V
2 °C 10 km+ - 220° 220° 5 kt METAR ESNG 261250Z 22005KT 200V260 CAVOK 02/M03 Q1001
13:20
V
2 °C 10 km+ - 260° 260° 6 kt METAR ESNG 261220Z 26006KT 230V290 CAVOK 02/M04 Q1001
12:50
V
1 °C 10 km+ - 240° 240° 7 kt METAR ESNG 261150Z 24007KT 200V270 CAVOK 01/M04 Q1000
12:20
V
2 °C 10 km+ - 260° 260° 6 kt METAR ESNG 261120Z 26006KT 220V290 CAVOK 02/M03 Q1000
11:50
V
2 °C 10 km+ - 290° 290° 6 kt METAR ESNG 261050Z 29006KT 240V350 CAVOK 02/M03 Q1000
11:20
V
0 °C 10 km+ - 190° 190° 7 kt METAR ESNG 261020Z 19007KT CAVOK 00/M04 Q0999
10:50
V
-1 °C 10 km+ - 180° 180° 7 kt METAR ESNG 260950Z 18007KT CAVOK M01/M04 Q0999
10:20
V
-1 °C 10 km+ - 200° 200° 7 kt METAR ESNG 260920Z 20007KT CAVOK M01/M04 Q0999
09:50
V
-2 °C 10 km+ - 210° 210° 10 kt METAR ESNG 260850Z 21010KT 170V240 CAVOK M02/M04 Q0999
09:20
V
-2 °C 10 km+ - 200° 200° 10 kt METAR ESNG 260820Z 20010KT 170V240 CAVOK M02/M04 Q0998
08:50
V
-3 °C 10 km+ - 200° 200° 10 kt METAR ESNG 260750Z 20010KT CAVOK M03/M05 Q0998
08:20
V
-3 °C 10 km+ - 210° 210° 8 kt METAR ESNG 260720Z 21008KT CAVOK M03/M05 Q0998
07:50
V
-2 °C 10 km+ - 200° 200° 10 kt METAR ESNG 260650Z 20010KT CAVOK M02/M04 Q0997
07:20
V
-3 °C 10 km+ - 210° 210° 9 kt METAR ESNG 260620Z AUTO 21009KT 160V240 9999 FEW110/// M03/M05 Q0997
06:50
V
-3 °C 10 km+ - 230° 230° 5 kt METAR ESNG 260550Z 23005KT 140V280 CAVOK M03/M04 Q0997
06:20
V
-3 °C 10 km+ - 110° 110° 6 kt METAR ESNG 260520Z AUTO 11006KT 080V210 9999 NCD M03/M04 Q0997
05:50
M
-2 °C 10 km+ 1.100 ft 160° 160° 4 kt METAR ESNG 260450Z 16004KT 100V240 9999 BKN011 M02/M04 Q0996
05:20
M
-3 °C 10 km+ 1.000 ft Var Var 4 kt METAR ESNG 260420Z VRB04KT 360V360 9999 BKN010 M03/M04 Q0996
04:50
V
-2 °C 10 km+ - 210° 210° 14 kt METAR ESNG 260350Z 21014KT CAVOK M02/M04 Q0996
04:20
V
-2 °C 10 km+ - 200° 200° 17 kt METAR ESNG 260320Z AUTO 20017KT 9999 FEW055/// M02/M04 Q0996
03:50
V
-2 °C 10 km+ - 200° 200° 12 kt METAR ESNG 260250Z AUTO 20012KT 9999 FEW012/// SCT062/// M02/M04 Q0996
03:20
M
-2 °C 10 km+ 1.100 ft 180° 180° 8 kt METAR ESNG 260220Z AUTO 18008KT 9999 OVC011/// M02/M03 Q0996
02:50
M
-2 °C 10 km+ 1.000 ft 160° 160° 4 kt METAR ESNG 260150Z AUTO 16004KT 110V230 9999 OVC010/// M02/M03 Q0996
02:20
M
-1 °C 10 km+ 1.000 ft Var Var 3 kt METAR ESNG 260120Z AUTO VRB03KT 9999 OVC010/// M01/M03 Q0996
01:50
V
-2 °C 10 km+ - 160° 160° 3 kt METAR ESNG 260050Z AUTO 16003KT 090V220 9999 SCT011/// M02/M03 Q0996
01:20
V
-1 °C 10 km+ - 190° 190° 6 kt METAR ESNG 260020Z AUTO 19006KT 160V230 9999 NCD M01/M03 Q0996
00:50
V
-1 °C 10 km+ - 190° 190° 7 kt METAR ESNG 252350Z AUTO 19007KT 130V240 9999 SCT150/// M01/M03 Q0996
00:20
V
-1 °C 10 km+ 14.000 ft 180° 180° 7 kt METAR ESNG 252320Z AUTO 18007KT 140V230 9999 SCT014/// BKN140/// M01/M03 Q0996

2024年2月25日

时间 代码 天气 温度 能见度 天花板 METAR/SPECI
23:50
M
0 °C 10 km+ 1.500 ft 180° 180° 8 kt METAR ESNG 252250Z AUTO 18008KT 9999 OVC015/// M00/M03 Q0996
23:20
M
-1 °C 10 km+ 1.600 ft 160° 160° 5 kt METAR ESNG 252220Z AUTO 16005KT 100V210 9999 OVC016/// M01/M03 Q0996
22:50
M
-1 °C 10 km+ 1.600 ft 110° 110° 7 kt METAR ESNG 252150Z AUTO 11007KT 080V150 9999 BKN016/// OVC020/// M01/M04 Q0996
22:20
V
-2 °C 10 km+ - 160° 160° 6 kt METAR ESNG 252120Z 16006KT 120V200 9999 SCT023 M02/M05 Q0996
21:50
V
-2 °C 10 km+ - 170° 170° 6 kt METAR ESNG 252050Z 17006KT 140V220 9999 SCT021 M02/M05 Q0996
21:20
M
-1 °C 10 km+ 2.100 ft 190° 190° 7 kt METAR ESNG 252020Z 19007KT 150V220 9999 BKN021 M01/M04 Q0996
20:50
M
-1 °C 10 km+ 1.900 ft 220° 220° 10 kt METAR ESNG 251950Z AUTO 22010KT 9999 OVC019/// M01/M04 Q0996
20:20
M
-1 °C 10 km+ 1.800 ft 200° 200° 7 kt METAR ESNG 251920Z 20007KT 170V240 9999 FEW009 OVC018 M01/M04 Q0996
19:50
M
-1 °C 10 km+ 1.700 ft 150° 150° 5 kt METAR ESNG 251850Z AUTO 15005KT 100V190 9999 OVC017/// M01/M04 Q0996
19:20
M
-1 °C 10 km+ 1.600 ft 190° 190° 8 kt METAR ESNG 251820Z 19008KT 150V230 9999 OVC016 M01/M04 Q0996
18:50
M
-1 °C 10 km+ 1.600 ft 180° 180° 9 kt METAR ESNG 251750Z 18009KT 9999 FEW009 BKN016 M01/M04 Q0996
18:20
M
-1 °C 10 km+ 1.700 ft 200° 200° 7 kt METAR ESNG 251720Z 20007KT 150V240 9999 BKN017 M01/M04 Q0996
17:50
M
-1 °C 10 km+ 1.900 ft 170° 170° 9 kt METAR ESNG 251650Z 17009KT 120V200 9999 BKN019 M01/M04 Q0996
17:20
M
-1 °C 10 km+ 1.900 ft 160° 160° 8 kt METAR ESNG 251620Z 16008KT 110V200 9999 BKN019 M01/M04 Q0996
16:50
M
-1 °C 10 km+ 1.800 ft 180° 180° 7 kt METAR ESNG 251550Z 18007KT 140V210 9999 BKN018 M01/M04 Q0995
16:20
M
-1 °C 10 km+ 1.700 ft 170° 170° 7 kt METAR ESNG 251520Z 17007KT 140V210 9999 BKN017 M01/M04 Q0995
15:50
M
-1 °C 10 km+ 1.600 ft 180° 180° 9 kt METAR ESNG 251450Z 18009KT 9999 OVC016 M01/M04 Q0995
15:20
M
-1 °C 10 km+ 1.400 ft 180° 180° 9 kt METAR ESNG 251420Z 18009KT 140V200 9999 BKN014 M01/M04 Q0995
14:50
M
-1 °C 10 km+ 1.300 ft 170° 170° 10 kt METAR ESNG 251350Z 17010KT 9999 BKN013 M01/M04 Q0995
14:20
M
-1 °C 10 km+ 1.300 ft 200° 200° 12 kt METAR ESNG 251320Z 20012KT 9999 BKN013 M01/M03 Q0995
13:50
M
-1 °C 10 km+ 1.300 ft 200° 200° 12 kt METAR ESNG 251250Z AUTO 20012KT 9999 OVC013/// M01/M03 Q0995
13:20
M
-1 °C 10 km+ 1.400 ft 180° 180° 11 kt METAR ESNG 251220Z AUTO 18011KT 9999 OVC014/// M01/M03 Q0995
12:50
M
-1 °C 10 km+ 1.300 ft 190° 190° 12 kt METAR ESNG 251150Z AUTO 19012KT 9999 OVC013/// M01/M04 Q0995
12:20
M
-1 °C 10 km+ 1.300 ft 200° 200° 11 kt METAR ESNG 251120Z AUTO 20011KT 9999 OVC013/// M01/M04 Q0995
11:50
M
-1 °C 10 km+ 1.300 ft 210° 210° 8 kt METAR ESNG 251050Z AUTO 21008KT 9999 OVC013/// M01/M03 Q0994
11:20
M
-1 °C 10 km+ 1.300 ft 200° 200° 8 kt METAR ESNG 251020Z AUTO 20008KT 9999 OVC013/// M01/M04 Q0994
10:50
M
-1 °C 10 km+ 1.200 ft 200° 200° 13 kt METAR ESNG 250950Z 20013KT 9999 BKN012 M01/M03 Q0994
09:50
V
-2 °C 10 km+ - 190° 190° 13 kt METAR ESNG 250850Z 19013KT 9999 SCT010 M02/M04 Q0993
09:20
M
-1 °C 10 km+ 1.100 ft 210° 210° 14 kt METAR ESNG 250820Z AUTO 21014KT 9999 OVC011/// M01/M04 Q0993
08:50
M
-1 °C 10 km+ 1.100 ft 210° 210° 11 kt METAR ESNG 250750Z AUTO 21011KT 110V230 9999 OVC011/// M01/M03 Q0993
08:20
M
-1 °C 10 km+ 1.100 ft 210° 210° 11 kt METAR ESNG 250720Z AUTO 21011KT 9999 OVC011/// M01/M03 Q0993
07:50
M
-1 °C 10 km+ 1.100 ft 240° 240° 3 kt METAR ESNG 250650Z AUTO 24003KT 9999 OVC011/// M01/M03 Q0993
07:20
M
-1 °C 10 km+ 1.200 ft 180° 180° 2 - 13 kt METAR ESNG 250620Z AUTO 18002G13KT 9999 OVC012/// M01/M03 Q0993
06:50
M
-1 °C 10 km+ 1.300 ft 210° 210° 6 kt METAR ESNG 250550Z AUTO 21006KT 150V250 9999 OVC013/// M01/M03 Q0992